Quecreek, PA (15555)

3:16 PM EDT on September 01, 2015 (GMT -0400)
APRSWXNET | | Change Station
CLOSE
Current Station
Personal Weather Station
Location: Sipesville, PA
Elevation: 1970 ft
Nearby Weather Stations

Elev 1970 ft 40.12 °N, 79.10 °W | Updated 17 minutes ago

Partly Cloudy
Partly Cloudy
86 °F
Feels Like 87 °F
N
2
Wind Variable Wind from West
Gusts 9.0 mph

Today
High -- | Low -- °F
--% Chance of Precip.
Yesterday
High -- | Low -- °F
Precip. -- in
6:43 AM 7:48 PM
Waning Gibbous, 87% visible
Pressure 30.11 in
Visibility 8.0 miles
Clouds Scattered Clouds 4000 ft
Heat Index 87 °F
Dew Point 64 °F
Humidity 48%
Rainfall in
Snow Depth Not available.
UV 6 out of 12
Pollen 10.20 out of 12
Air Quality Not available.
Flu Activity Not available.
METAR KJST 011854Z AUTO 32009KT 8SM SCT040 28/16 A3016 RMK AO2 SLP196 T02780161
Pressure 30.11 in
Visibility 8.0 miles
Clouds Scattered Clouds 4000 ft
Heat Index 87 °F
Dew Point 64 °F
Humidity 48%
Rainfall in
Snow Depth Not available.
UV 6 out of 12
Pollen 10.20 out of 12
Air Quality Not available.
Flu Activity Not available.
METAR KJST 011854Z AUTO 32009KT 8SM SCT040 28/16 A3016 RMK AO2 SLP196 T02780161

10-Day Weather Forecast

×

Almanac

Astronomy

Sep. 01, 2015 Rise Set
Actual Time
Civil Twilight
Nautical Twilight
Astronomical Twilight
Moon
Length of Visible Light
Length of Day
Tomorrow will be .
, % of the Moon is Illuminated

Today's Extremes

State Highs State Lows

Community

WunderPhotos

Upload Photos

1,851,596 photos uploaded!

WunderBlogs® & News

Nearby

Air Quality

  Air Quality AQ Index Pollutant
Not available.

Snow Depth

Station Depth Elevation

Earthquake Activity

City Distance Mag. Time & Date
Minimum magnitude displayed is 2.5.

Coastal Water Temperatures

Place Temperature

Stations

Nearby Weather Stations

Station Location Temp. Windchill Dew Point Humidity Wind Precip. Elev Updated Type